createdAt,value
2017-08-07T00:00:31.496Z,993.89
2017-08-07T00:01:28.725Z,993.94
2017-08-07T00:02:25.964Z,993.91
2017-08-07T00:03:23.217Z,993.86
2017-08-07T00:04:20.456Z,993.84
2017-08-07T00:05:17.665Z,993.88
2017-08-07T00:06:14.916Z,993.89
2017-08-07T00:07:12.125Z,993.80
2017-08-07T00:08:09.382Z,993.85
2017-08-07T00:09:06.602Z,993.79
2017-08-07T00:10:03.844Z,993.86
2017-08-07T00:11:01.072Z,993.82
2017-08-07T00:11:58.323Z,993.90
2017-08-07T00:12:55.567Z,993.77
2017-08-07T00:13:52.826Z,993.77
2017-08-07T00:14:50.037Z,993.80
2017-08-07T00:15:47.268Z,993.79
2017-08-07T00:16:44.475Z,993.74
2017-08-07T00:17:41.720Z,993.74
2017-08-07T00:18:38.960Z,993.70
2017-08-07T00:19:36.216Z,993.70
2017-08-07T00:20:33.452Z,993.61
2017-08-07T00:21:30.684Z,993.55
2017-08-07T00:22:27.909Z,993.64
2017-08-07T00:23:25.184Z,993.69
2017-08-07T00:24:22.404Z,993.68
2017-08-07T00:25:19.668Z,993.72
2017-08-07T00:26:16.913Z,993.64
2017-08-07T00:27:14.177Z,993.62
2017-08-07T00:28:11.425Z,993.66
2017-08-07T00:29:08.700Z,993.67
2017-08-07T00:30:05.921Z,993.62
2017-08-07T00:31:03.156Z,993.60
2017-08-07T00:32:00.384Z,993.62
2017-08-07T00:32:57.628Z,993.57
2017-08-07T00:33:54.868Z,993.61
2017-08-07T00:34:52.105Z,993.52
2017-08-07T00:35:49.323Z,993.45
2017-08-07T00:36:46.568Z,993.50
2017-08-07T00:37:43.787Z,993.50
2017-08-07T00:38:41.053Z,993.48
2017-08-07T00:39:38.261Z,993.50
2017-08-07T00:40:35.513Z,993.57
2017-08-07T00:41:32.724Z,993.55
2017-08-07T00:42:29.971Z,993.49
2017-08-07T00:43:27.192Z,993.43
2017-08-07T00:44:24.449Z,993.53
2017-08-07T00:45:21.688Z,993.51
2017-08-07T00:46:18.943Z,993.51
2017-08-07T00:47:16.157Z,993.50
2017-08-07T00:48:13.416Z,993.47
2017-08-07T00:49:10.657Z,993.44
2017-08-07T00:50:07.901Z,993.51
2017-08-07T00:51:05.149Z,993.49
2017-08-07T00:52:02.394Z,993.57
2017-08-07T00:52:59.604Z,993.47
2017-08-07T00:53:56.869Z,993.49
2017-08-07T00:54:54.092Z,993.53
2017-08-07T00:55:51.339Z,993.50
2017-08-07T00:56:48.580Z,993.49
2017-08-07T00:57:45.832Z,993.44
2017-08-07T00:58:43.064Z,993.43
2017-08-07T00:59:40.324Z,993.51
2017-08-07T01:00:37.545Z,993.48
2017-08-07T01:01:34.809Z,993.45
2017-08-07T01:02:32.040Z,993.46
2017-08-07T01:03:29.292Z,993.49
2017-08-07T01:04:26.528Z,993.48
2017-08-07T01:05:23.784Z,993.48
2017-08-07T01:06:21.012Z,993.41
2017-08-07T01:07:18.244Z,993.42
2017-08-07T01:08:15.462Z,993.43
2017-08-07T01:09:12.741Z,993.44
2017-08-07T01:10:10.002Z,993.43
2017-08-07T01:11:07.336Z,993.41
2017-08-07T01:12:04.560Z,993.35
2017-08-07T01:13:01.816Z,993.41
2017-08-07T01:13:59.044Z,993.40
2017-08-07T01:14:56.323Z,993.39
2017-08-07T01:15:53.558Z,993.37
2017-08-07T01:16:50.805Z,993.34
2017-08-07T01:17:48.037Z,993.41
2017-08-07T01:18:45.281Z,993.43
2017-08-07T01:19:42.521Z,993.35
2017-08-07T01:20:39.903Z,993.39
2017-08-07T01:21:37.125Z,993.42
2017-08-07T01:22:34.365Z,993.29
2017-08-07T01:23:31.592Z,993.33
2017-08-07T01:24:28.884Z,993.38
2017-08-07T01:25:26.161Z,993.36
2017-08-07T01:26:23.476Z,993.30
2017-08-07T01:27:20.704Z,993.32
2017-08-07T01:28:17.952Z,993.33
2017-08-07T01:29:15.201Z,993.26
2017-08-07T01:30:12.497Z,993.24
2017-08-07T01:31:09.743Z,993.24
2017-08-07T01:32:06.988Z,993.21
2017-08-07T01:33:04.264Z,993.31
2017-08-07T01:34:01.542Z,993.30
2017-08-07T01:34:58.776Z,993.24
2017-08-07T01:35:56.008Z,993.19
2017-08-07T01:36:53.236Z,993.17
2017-08-07T01:37:50.483Z,993.15
2017-08-07T01:38:47.722Z,993.16
2017-08-07T01:39:44.987Z,993.17
2017-08-07T01:40:42.244Z,993.14
2017-08-07T01:41:39.529Z,993.14
2017-08-07T01:42:36.756Z,993.17
2017-08-07T01:43:34.014Z,993.22
2017-08-07T01:44:31.268Z,993.14
2017-08-07T01:45:28.537Z,993.20
2017-08-07T01:46:25.748Z,993.14
2017-08-07T01:47:23.020Z,993.11
2017-08-07T01:48:20.256Z,993.13
2017-08-07T01:49:17.520Z,993.13
2017-08-07T01:50:14.772Z,993.05
2017-08-07T01:51:12.043Z,993.06
2017-08-07T01:52:09.288Z,993.01
2017-08-07T01:53:06.532Z,993.09
2017-08-07T01:54:03.758Z,993.08
2017-08-07T01:55:01.021Z,993.09
2017-08-07T01:55:58.295Z,993.09
2017-08-07T01:56:55.557Z,993.06
2017-08-07T01:57:53.012Z,993.00
2017-08-07T01:58:50.257Z,993.04
2017-08-07T01:59:47.484Z,993.07
2017-08-07T02:00:44.752Z,993.03
2017-08-07T02:01:41.964Z,993.01
2017-08-07T02:02:39.217Z,993.09
2017-08-07T02:03:36.440Z,993.03
2017-08-07T02:04:33.688Z,993.08
2017-08-07T02:05:30.948Z,993.04
2017-08-07T02:06:28.206Z,993.07
2017-08-07T02:07:25.413Z,993.03
2017-08-07T02:08:22.663Z,993.03
2017-08-07T02:09:19.884Z,993.00
2017-08-07T02:10:17.137Z,993.02
2017-08-07T02:11:14.380Z,993.02
2017-08-07T02:12:11.629Z,993.01
2017-08-07T02:13:08.852Z,993.05
2017-08-07T02:14:06.108Z,993.02
2017-08-07T02:15:03.329Z,993.05
2017-08-07T02:16:00.605Z,992.98
2017-08-07T02:16:57.829Z,992.96
2017-08-07T02:17:55.087Z,992.98
2017-08-07T02:18:52.303Z,992.93
2017-08-07T02:19:49.560Z,992.94
2017-08-07T02:20:46.817Z,993.00
2017-08-07T02:21:44.085Z,992.98
2017-08-07T02:22:41.300Z,992.93
2017-08-07T02:23:38.553Z,992.99
2017-08-07T02:24:35.782Z,992.95
2017-08-07T02:25:33.053Z,993.03
2017-08-07T02:26:30.320Z,992.95
2017-08-07T02:27:27.607Z,992.96
2017-08-07T02:28:24.840Z,992.98
2017-08-07T02:29:22.075Z,992.97
2017-08-07T02:30:19.301Z,992.95
2017-08-07T02:31:16.581Z,992.97
2017-08-07T02:32:13.816Z,993.01
2017-08-07T02:33:11.181Z,993.02
2017-08-07T02:34:08.410Z,992.96
2017-08-07T02:35:05.660Z,992.96
2017-08-07T02:36:02.905Z,992.93
2017-08-07T02:37:00.171Z,992.96
2017-08-07T02:37:57.404Z,992.95
2017-08-07T02:38:54.653Z,992.94
2017-08-07T02:39:51.880Z,992.97
2017-08-07T02:40:49.133Z,992.94
2017-08-07T02:41:46.388Z,992.92
2017-08-07T02:42:43.630Z,992.94
2017-08-07T02:43:40.853Z,992.88
2017-08-07T02:44:38.148Z,992.96
2017-08-07T02:45:35.369Z,992.90
2017-08-07T02:46:32.647Z,992.90
2017-08-07T02:47:29.867Z,992.89
2017-08-07T02:48:27.108Z,992.92
2017-08-07T02:49:24.328Z,992.94
2017-08-07T02:50:21.576Z,992.87
2017-08-07T02:51:18.796Z,992.90
2017-08-07T02:52:16.067Z,992.85
2017-08-07T02:53:13.438Z,992.93
2017-08-07T02:54:10.685Z,992.94
2017-08-07T02:55:07.900Z,992.93
2017-08-07T02:56:05.156Z,992.94
2017-08-07T02:57:02.416Z,992.93
2017-08-07T02:57:59.668Z,992.92
2017-08-07T02:58:56.951Z,992.91
2017-08-07T02:59:54.208Z,992.89
2017-08-07T03:00:51.440Z,992.87
2017-08-07T03:01:48.729Z,992.90
2017-08-07T03:02:45.960Z,992.89
2017-08-07T03:03:43.217Z,992.88
2017-08-07T03:04:40.440Z,992.89
2017-08-07T03:05:37.691Z,992.86
2017-08-07T03:06:34.913Z,992.86
2017-08-07T03:07:32.187Z,992.87
2017-08-07T03:08:29.407Z,992.89
2017-08-07T03:09:26.654Z,992.85
2017-08-07T03:10:23.868Z,992.88
2017-08-07T03:11:21.238Z,992.89
2017-08-07T03:12:18.484Z,992.87
2017-08-07T03:13:15.761Z,992.89
2017-08-07T03:14:12.988Z,992.92
2017-08-07T03:15:10.236Z,992.85
2017-08-07T03:16:07.463Z,992.84
2017-08-07T03:17:04.748Z,992.80
2017-08-07T03:18:01.968Z,992.80
2017-08-07T03:18:59.221Z,992.82
2017-08-07T03:19:56.442Z,992.84
2017-08-07T03:20:53.694Z,992.76
2017-08-07T03:21:50.921Z,992.79
2017-08-07T03:22:48.191Z,992.78
2017-08-07T03:23:45.432Z,992.73
2017-08-07T03:24:42.688Z,992.80
2017-08-07T03:25:39.915Z,992.81
2017-08-07T03:26:37.184Z,992.76
2017-08-07T03:27:34.424Z,992.71
2017-08-07T03:28:31.680Z,992.76
2017-08-07T03:29:28.900Z,992.80
2017-08-07T03:30:26.152Z,992.77
2017-08-07T03:31:23.380Z,992.71
2017-08-07T03:32:20.657Z,992.82
2017-08-07T03:33:17.872Z,992.78
2017-08-07T03:34:15.116Z,992.72
2017-08-07T03:35:12.345Z,992.80
2017-08-07T03:36:09.612Z,992.75
2017-08-07T03:37:06.828Z,992.72
2017-08-07T03:38:04.090Z,992.70
2017-08-07T03:39:01.320Z,992.73
2017-08-07T03:39:58.625Z,992.73
2017-08-07T03:40:55.861Z,992.70
2017-08-07T03:41:53.109Z,992.68
2017-08-07T03:42:50.328Z,992.75
2017-08-07T03:43:47.581Z,992.62
2017-08-07T03:44:44.806Z,992.64
2017-08-07T03:45:42.045Z,992.72
2017-08-07T03:46:39.264Z,992.66
2017-08-07T03:47:36.517Z,992.68
2017-08-07T03:48:33.768Z,992.68
2017-08-07T03:49:31.024Z,992.73
2017-08-07T03:50:28.258Z,992.68
2017-08-07T03:51:25.501Z,992.61
2017-08-07T03:52:22.720Z,992.60
2017-08-07T03:53:19.972Z,992.67
2017-08-07T03:54:17.197Z,992.67
2017-08-07T03:55:14.437Z,992.62
2017-08-07T03:56:11.664Z,992.63
2017-08-07T03:57:08.910Z,992.59
2017-08-07T03:58:06.164Z,992.50
2017-08-07T03:59:03.424Z,992.60
2017-08-07T04:00:00.640Z,992.65
2017-08-07T04:00:57.909Z,992.53
2017-08-07T04:01:55.136Z,992.52
2017-08-07T04:02:52.392Z,992.63
2017-08-07T04:03:49.645Z,992.53
2017-08-07T04:04:46.888Z,992.58
2017-08-07T04:05:44.108Z,992.58
2017-08-07T04:06:41.369Z,992.51
2017-08-07T04:07:38.595Z,992.56
2017-08-07T04:08:35.868Z,992.52
2017-08-07T04:09:33.084Z,992.55
2017-08-07T04:10:30.332Z,992.54
2017-08-07T04:11:27.548Z,992.59
2017-08-07T04:12:24.792Z,992.57
2017-08-07T04:13:22.021Z,992.62
2017-08-07T04:14:19.292Z,992.55
2017-08-07T04:15:16.511Z,992.57
2017-08-07T04:16:13.748Z,992.55
2017-08-07T04:17:10.960Z,992.50
2017-08-07T04:18:08.313Z,992.48
2017-08-07T04:19:05.548Z,992.61
2017-08-07T04:20:03.065Z,992.54
2017-08-07T04:21:00.293Z,992.52
2017-08-07T04:21:57.549Z,992.45
2017-08-07T04:22:54.764Z,992.54
2017-08-07T04:23:52.040Z,992.50
2017-08-07T04:24:49.246Z,992.55
2017-08-07T04:25:46.735Z,992.53
2017-08-07T04:26:44.040Z,992.58
2017-08-07T04:27:41.349Z,992.58
2017-08-07T04:28:38.572Z,992.60
2017-08-07T04:29:35.847Z,992.61
2017-08-07T04:30:33.072Z,992.62
2017-08-07T04:31:30.346Z,992.56
2017-08-07T04:32:27.577Z,992.62
2017-08-07T04:33:24.816Z,992.61
2017-08-07T04:34:22.065Z,992.61
2017-08-07T04:35:19.316Z,992.61
2017-08-07T04:36:16.534Z,992.66
2017-08-07T04:37:13.773Z,992.63
2017-08-07T04:38:10.992Z,992.56
2017-08-07T04:39:08.255Z,992.66
2017-08-07T04:40:05.473Z,992.59
2017-08-07T04:41:02.724Z,992.62
2017-08-07T04:41:59.956Z,992.59
2017-08-07T04:42:57.193Z,992.61
2017-08-07T04:43:54.428Z,992.62
2017-08-07T04:44:51.692Z,992.63
2017-08-07T04:45:48.913Z,992.56
2017-08-07T04:46:46.157Z,992.61
2017-08-07T04:47:43.368Z,992.64
2017-08-07T04:48:40.620Z,992.59
2017-08-07T04:49:37.856Z,992.64
2017-08-07T04:50:35.110Z,992.61
2017-08-07T04:51:32.325Z,992.56
2017-08-07T04:52:29.576Z,992.54
2017-08-07T04:53:26.793Z,992.50
2017-08-07T04:54:24.036Z,992.53
2017-08-07T04:55:21.288Z,992.49
2017-08-07T04:56:18.541Z,992.50
2017-08-07T04:57:15.752Z,992.53
2017-08-07T04:58:13.000Z,992.47
2017-08-07T04:59:10.228Z,992.51
2017-08-07T05:00:07.492Z,992.52
2017-08-07T05:01:04.728Z,992.51
2017-08-07T05:02:01.981Z,992.50
2017-08-07T05:02:59.231Z,992.53
2017-08-07T05:03:56.479Z,992.53
2017-08-07T05:04:53.740Z,992.49
2017-08-07T05:05:50.997Z,992.46
2017-08-07T05:06:48.204Z,992.41
2017-08-07T05:07:45.443Z,992.43
2017-08-07T05:08:42.669Z,992.39
2017-08-07T05:09:39.917Z,992.45
2017-08-07T05:10:37.153Z,992.40
2017-08-07T05:11:34.414Z,992.36
2017-08-07T05:12:31.652Z,992.43
2017-08-07T05:13:28.916Z,992.40
2017-08-07T05:14:26.146Z,992.34
2017-08-07T05:15:23.417Z,992.43
2017-08-07T05:16:20.636Z,992.38
2017-08-07T05:17:17.893Z,992.34
2017-08-07T05:18:15.114Z,992.38
2017-08-07T05:19:12.362Z,992.36
2017-08-07T05:20:09.580Z,992.39
2017-08-07T05:21:06.845Z,992.35
2017-08-07T05:22:04.069Z,992.37
2017-08-07T05:23:01.329Z,992.38
2017-08-07T05:23:58.539Z,992.41
2017-08-07T05:24:55.842Z,992.41
2017-08-07T05:25:53.159Z,992.34
2017-08-07T05:26:50.460Z,992.32
2017-08-07T05:27:47.677Z,992.34
2017-08-07T05:28:44.916Z,992.34
2017-08-07T05:29:42.136Z,992.32
2017-08-07T05:30:39.396Z,992.36
2017-08-07T05:31:36.612Z,992.28
2017-08-07T05:32:33.875Z,992.29
2017-08-07T05:33:31.090Z,992.36
2017-08-07T05:34:28.324Z,992.35
2017-08-07T05:35:25.552Z,992.34
2017-08-07T05:36:22.825Z,992.30
2017-08-07T05:37:20.041Z,992.29
2017-08-07T05:38:17.297Z,992.30
2017-08-07T05:39:14.509Z,992.31
2017-08-07T05:40:11.755Z,992.27
2017-08-07T05:41:08.985Z,992.35
2017-08-07T05:42:06.225Z,992.30
2017-08-07T05:43:03.445Z,992.32
2017-08-07T05:44:00.705Z,992.31
2017-08-07T05:44:57.999Z,992.30
2017-08-07T05:45:55.312Z,992.35
2017-08-07T05:46:52.539Z,992.35
2017-08-07T05:47:49.792Z,992.31
2017-08-07T05:48:47.013Z,992.37
2017-08-07T05:49:44.314Z,992.29
2017-08-07T05:50:41.552Z,992.28
2017-08-07T05:51:38.824Z,992.29
2017-08-07T05:52:36.048Z,992.28
2017-08-07T05:53:33.361Z,992.30
2017-08-07T05:54:30.709Z,992.23
2017-08-07T05:55:27.966Z,992.29
2017-08-07T05:56:25.213Z,992.33
2017-08-07T05:57:22.476Z,992.27
2017-08-07T05:58:19.696Z,992.32
2017-08-07T05:59:16.939Z,992.32
2017-08-07T06:00:14.165Z,992.32
2017-08-07T06:01:11.448Z,992.29
2017-08-07T06:02:08.704Z,992.41
2017-08-07T06:03:05.976Z,992.30
2017-08-07T06:04:03.229Z,992.31
2017-08-07T06:05:00.482Z,992.34
2017-08-07T06:05:57.864Z,992.29
2017-08-07T06:06:55.192Z,992.34
2017-08-07T06:07:52.430Z,992.28
2017-08-07T06:08:49.683Z,992.24
2017-08-07T06:09:46.932Z,992.30
2017-08-07T06:10:44.209Z,992.36
2017-08-07T06:11:41.444Z,992.32
2017-08-07T06:12:38.879Z,992.25
2017-08-07T06:13:36.563Z,992.25
2017-08-07T06:14:33.930Z,992.27
2017-08-07T06:15:31.143Z,992.26
2017-08-07T06:16:28.409Z,992.23
2017-08-07T06:17:25.721Z,992.23
2017-08-07T06:18:23.178Z,992.20
2017-08-07T06:19:20.537Z,992.15
2017-08-07T06:20:17.953Z,992.14
2017-08-07T06:21:15.338Z,992.19
2017-08-07T06:22:15.204Z,992.17
2017-08-07T06:23:16.480Z,992.23
2017-08-07T06:24:13.764Z,992.19
2017-08-07T06:25:11.009Z,992.17
2017-08-07T06:26:08.305Z,992.18
2017-08-07T06:27:05.785Z,992.14
2017-08-07T06:28:03.609Z,992.21
2017-08-07T06:29:01.024Z,992.20
2017-08-07T06:29:58.359Z,992.19
2017-08-07T06:30:55.643Z,992.13
2017-08-07T06:31:52.972Z,992.17
2017-08-07T06:32:50.331Z,992.14
2017-08-07T06:33:47.700Z,992.10
2017-08-07T06:34:44.925Z,992.20
2017-08-07T06:35:42.179Z,992.11
2017-08-07T06:36:39.401Z,992.10
2017-08-07T06:37:36.668Z,992.14
2017-08-07T06:38:33.900Z,992.10
2017-08-07T06:39:31.165Z,992.14
2017-08-07T06:40:28.372Z,992.16
2017-08-07T06:41:25.612Z,992.08
2017-08-07T06:42:22.823Z,992.15
2017-08-07T06:43:20.163Z,992.09
2017-08-07T06:44:17.425Z,992.06
2017-08-07T06:45:14.688Z,992.00
2017-08-07T06:46:11.916Z,992.12
2017-08-07T06:47:09.172Z,992.01
2017-08-07T06:48:06.395Z,992.00
2017-08-07T06:49:03.677Z,992.02
2017-08-07T06:50:00.920Z,992.03
2017-08-07T06:50:58.258Z,991.96
2017-08-07T06:51:55.532Z,991.98
2017-08-07T06:52:52.812Z,992.10
2017-08-07T06:53:51.975Z,992.02
2017-08-07T06:54:49.242Z,991.98
2017-08-07T06:55:46.529Z,991.93
2017-08-07T06:56:43.949Z,992.02
2017-08-07T06:57:41.197Z,992.06
2017-08-07T06:58:38.480Z,991.99
2017-08-07T06:59:35.829Z,991.94
2017-08-07T07:00:33.122Z,992.04
2017-08-07T07:01:30.380Z,991.99
2017-08-07T07:02:27.697Z,992.00
2017-08-07T07:03:25.193Z,991.93
2017-08-07T07:04:22.576Z,991.95
2017-08-07T07:05:19.820Z,991.92
2017-08-07T07:06:17.093Z,991.98
2017-08-07T07:07:14.365Z,991.97
2017-08-07T07:08:11.669Z,991.96
2017-08-07T07:09:08.981Z,991.94
2017-08-07T07:10:06.360Z,991.94
2017-08-07T07:11:03.608Z,991.96
2017-08-07T07:12:01.192Z,991.94
2017-08-07T07:12:58.449Z,991.93
2017-08-07T07:13:55.735Z,991.96
2017-08-07T07:14:53.008Z,991.92
2017-08-07T07:15:50.301Z,991.91
2017-08-07T07:16:47.553Z,991.92
2017-08-07T07:17:44.839Z,991.84
2017-08-07T07:18:42.080Z,991.95
2017-08-07T07:19:39.392Z,991.77
2017-08-07T07:20:36.634Z,991.87
2017-08-07T07:21:33.900Z,991.85
2017-08-07T07:22:31.112Z,991.84
2017-08-07T07:23:28.576Z,991.84
2017-08-07T07:24:25.834Z,991.80
2017-08-07T07:25:23.149Z,991.84
2017-08-07T07:26:20.438Z,991.81
2017-08-07T07:27:17.788Z,991.83
2017-08-07T07:28:15.093Z,991.77
2017-08-07T07:29:12.486Z,991.80
2017-08-07T07:30:10.082Z,991.82
2017-08-07T07:31:07.371Z,991.77
2017-08-07T07:32:04.639Z,991.75
2017-08-07T07:33:01.924Z,991.72
2017-08-07T07:33:59.160Z,991.74
2017-08-07T07:34:56.420Z,991.74
2017-08-07T07:35:53.723Z,991.66
2017-08-07T07:36:50.988Z,991.72
2017-08-07T07:37:48.216Z,991.74
2017-08-07T07:38:45.476Z,991.76
2017-08-07T07:39:42.706Z,991.74
2017-08-07T07:40:40.016Z,991.68
2017-08-07T07:41:37.230Z,991.72
2017-08-07T07:42:34.481Z,991.74
2017-08-07T07:43:31.708Z,991.74
2017-08-07T07:44:29.043Z,991.79
2017-08-07T07:45:26.268Z,991.70
2017-08-07T07:46:23.548Z,991.73
2017-08-07T07:47:20.768Z,991.72
2017-08-07T07:48:23.039Z,991.68
2017-08-07T07:49:20.327Z,991.65
2017-08-07T07:50:17.580Z,991.70
2017-08-07T07:51:14.893Z,991.65
2017-08-07T07:52:12.113Z,991.72
2017-08-07T07:53:09.377Z,991.74
2017-08-07T07:54:13.281Z,991.66
2017-08-07T07:55:10.520Z,991.64
2017-08-07T07:56:07.800Z,991.64
2017-08-07T07:57:05.024Z,991.63
2017-08-07T07:58:02.281Z,991.64
2017-08-07T07:58:59.500Z,991.60
2017-08-07T07:59:56.770Z,991.59
2017-08-07T08:00:54.037Z,991.53
2017-08-07T08:01:51.280Z,991.51
2017-08-07T08:02:48.512Z,991.55
2017-08-07T08:03:45.829Z,991.50
2017-08-07T08:04:43.481Z,991.50
2017-08-07T08:05:40.732Z,991.50
2017-08-07T08:06:37.961Z,991.51
2017-08-07T08:07:35.224Z,991.49
2017-08-07T08:08:32.453Z,991.36
2017-08-07T08:09:29.745Z,991.42
2017-08-07T08:10:26.977Z,991.40
2017-08-07T08:11:24.261Z,991.48
2017-08-07T08:12:21.536Z,991.38
2017-08-07T08:13:18.789Z,991.47
2017-08-07T08:14:16.074Z,991.36
2017-08-07T08:15:13.414Z,991.43
2017-08-07T08:16:10.629Z,991.45
2017-08-07T08:17:07.900Z,991.40
2017-08-07T08:18:05.154Z,991.44
2017-08-07T08:19:02.400Z,991.41
2017-08-07T08:19:59.665Z,991.41
2017-08-07T08:20:56.930Z,991.52
2017-08-07T08:21:54.162Z,991.42
2017-08-07T08:22:51.412Z,991.47
2017-08-07T08:23:48.718Z,991.44
2017-08-07T08:24:45.969Z,991.41
2017-08-07T08:25:43.226Z,991.45
2017-08-07T08:26:40.517Z,991.40
2017-08-07T08:27:37.780Z,991.34
2017-08-07T08:28:35.177Z,991.32
2017-08-07T08:29:32.457Z,991.40
2017-08-07T08:30:29.765Z,991.25
2017-08-07T08:31:27.007Z,991.30
2017-08-07T08:32:24.312Z,991.36
2017-08-07T08:33:21.560Z,991.31
2017-08-07T08:34:18.848Z,991.28
2017-08-07T08:35:16.116Z,991.29
2017-08-07T08:36:13.441Z,991.25
2017-08-07T08:37:10.692Z,991.27
2017-08-07T08:38:08.011Z,991.20
2017-08-07T08:39:05.265Z,991.21
2017-08-07T08:40:02.621Z,991.21
2017-08-07T08:40:59.885Z,991.24
2017-08-07T08:41:57.165Z,991.22
2017-08-07T08:42:54.407Z,991.18
2017-08-07T08:43:51.663Z,991.17
2017-08-07T08:44:48.898Z,991.25
2017-08-07T08:45:46.194Z,991.22
2017-08-07T08:46:43.442Z,991.21
2017-08-07T08:47:40.708Z,991.22
2017-08-07T08:48:37.952Z,991.19
2017-08-07T08:49:35.241Z,991.13
2017-08-07T08:50:32.521Z,991.21
2017-08-07T08:51:29.781Z,991.23
2017-08-07T08:52:27.009Z,991.16
2017-08-07T08:53:24.266Z,991.21
2017-08-07T08:54:21.517Z,991.17
2017-08-07T08:55:19.120Z,991.25
2017-08-07T08:56:16.589Z,991.17
2017-08-07T08:57:13.845Z,991.15
2017-08-07T08:58:11.052Z,991.16
2017-08-07T08:59:08.310Z,991.19
2017-08-07T09:00:05.552Z,991.22
2017-08-07T09:01:02.834Z,991.16
2017-08-07T09:02:00.078Z,991.13
2017-08-07T09:02:57.356Z,991.17
2017-08-07T09:03:54.593Z,991.12
2017-08-07T09:04:51.874Z,991.14
2017-08-07T09:05:49.189Z,991.12
2017-08-07T09:06:46.485Z,991.12
2017-08-07T09:07:43.736Z,991.16
2017-08-07T09:08:41.025Z,991.09
2017-08-07T09:09:38.252Z,991.13
2017-08-07T09:10:35.504Z,991.16
2017-08-07T09:11:32.753Z,991.01
2017-08-07T09:12:30.024Z,991.04
2017-08-07T09:13:27.245Z,991.11
2017-08-07T09:14:24.510Z,991.10
2017-08-07T09:15:21.781Z,991.08
2017-08-07T09:16:19.081Z,991.08
2017-08-07T09:17:16.301Z,991.03
2017-08-07T09:18:13.558Z,991.08
2017-08-07T09:19:10.806Z,991.04
2017-08-07T09:20:08.073Z,991.04
2017-08-07T09:21:05.346Z,990.99
2017-08-07T09:22:02.629Z,991.00
2017-08-07T09:22:59.968Z,990.95
2017-08-07T09:23:57.232Z,991.01
2017-08-07T09:24:54.476Z,991.00
2017-08-07T09:25:51.800Z,990.94
2017-08-07T09:26:49.124Z,990.93
2017-08-07T09:27:46.385Z,990.90
2017-08-07T09:28:43.647Z,991.01
2017-08-07T09:29:40.970Z,990.98
2017-08-07T09:30:38.376Z,990.95
2017-08-07T09:31:35.696Z,991.01
2017-08-07T09:32:32.960Z,990.99
2017-08-07T09:33:30.233Z,990.95
2017-08-07T09:34:27.481Z,990.97
2017-08-07T09:35:24.740Z,990.97
2017-08-07T09:36:21.960Z,990.98
2017-08-07T09:37:19.656Z,990.89
2017-08-07T09:38:16.889Z,990.95
2017-08-07T09:39:14.161Z,990.87
2017-08-07T09:40:11.429Z,990.94
2017-08-07T09:41:08.676Z,990.91
2017-08-07T09:42:05.929Z,990.92
2017-08-07T09:43:03.207Z,990.95
2017-08-07T09:44:00.434Z,990.90
2017-08-07T09:44:57.690Z,990.89
2017-08-07T09:45:54.899Z,990.91
2017-08-07T09:46:52.820Z,990.94
2017-08-07T09:47:50.048Z,990.93
2017-08-07T09:48:47.304Z,990.89
2017-08-07T09:49:44.542Z,990.85
2017-08-07T09:50:41.817Z,990.87
2017-08-07T09:51:39.033Z,990.94
2017-08-07T09:52:36.551Z,990.91
2017-08-07T09:53:33.805Z,990.91
2017-08-07T09:54:31.061Z,990.93
2017-08-07T09:55:28.302Z,990.88
2017-08-07T09:56:25.544Z,990.90
2017-08-07T09:57:22.850Z,990.86
2017-08-07T09:58:20.324Z,990.90
2017-08-07T09:59:17.570Z,990.87
2017-08-07T10:00:14.839Z,990.76
2017-08-07T10:01:12.077Z,990.81
2017-08-07T10:02:09.361Z,990.86
2017-08-07T10:03:06.609Z,990.80
2017-08-07T10:04:03.925Z,990.76
2017-08-07T10:05:01.156Z,990.75
2017-08-07T10:05:58.450Z,990.83
2017-08-07T10:06:55.725Z,990.78
2017-08-07T10:07:53.051Z,990.76
2017-08-07T10:08:50.344Z,990.75
2017-08-07T10:09:47.737Z,990.70
2017-08-07T10:10:45.713Z,990.72
2017-08-07T10:11:42.973Z,990.75
2017-08-07T10:12:40.273Z,990.75
2017-08-07T10:13:37.541Z,990.70
2017-08-07T10:14:34.788Z,990.65
2017-08-07T10:15:32.054Z,990.72
2017-08-07T10:16:29.297Z,990.65
2017-08-07T10:17:26.571Z,990.70
2017-08-07T10:18:23.804Z,990.62
2017-08-07T10:19:21.079Z,990.68
2017-08-07T10:20:18.316Z,990.63
2017-08-07T10:21:15.602Z,990.64
2017-08-07T10:22:13.001Z,990.56
2017-08-07T10:23:11.856Z,990.62
2017-08-07T10:24:09.092Z,990.56
2017-08-07T10:25:06.390Z,990.59
2017-08-07T10:26:03.640Z,990.58
2017-08-07T10:27:01.369Z,990.59
2017-08-07T10:27:58.668Z,990.61
2017-08-07T10:28:57.028Z,990.55
2017-08-07T10:29:54.281Z,990.54
2017-08-07T10:30:51.541Z,990.58
2017-08-07T10:31:48.768Z,990.54
2017-08-07T10:32:46.077Z,990.54
2017-08-07T10:33:43.361Z,990.42
2017-08-07T10:34:40.637Z,990.47
2017-08-07T10:35:37.859Z,990.41
2017-08-07T10:36:35.113Z,990.47
2017-08-07T10:37:32.349Z,990.43
2017-08-07T10:38:29.628Z,990.51
2017-08-07T10:39:26.851Z,990.48
2017-08-07T10:40:24.104Z,990.39
2017-08-07T10:41:21.320Z,990.36
2017-08-07T10:42:18.568Z,990.43
2017-08-07T10:43:15.800Z,990.28
2017-08-07T10:44:13.086Z,990.38
2017-08-07T10:45:10.311Z,990.29
2017-08-07T10:46:07.553Z,990.30
2017-08-07T10:47:04.788Z,990.30
2017-08-07T10:48:02.040Z,990.28
2017-08-07T10:48:59.296Z,990.31
2017-08-07T10:49:56.552Z,990.29
2017-08-07T10:50:53.780Z,990.26
2017-08-07T10:51:51.132Z,990.29
2017-08-07T10:52:48.348Z,990.19
2017-08-07T10:53:45.732Z,990.20
2017-08-07T10:54:42.956Z,990.14
2017-08-07T10:55:40.251Z,990.23
2017-08-07T10:56:37.497Z,990.17
2017-08-07T10:57:34.769Z,990.17
2017-08-07T10:58:32.021Z,990.10
2017-08-07T10:59:29.284Z,990.15
2017-08-07T11:00:26.513Z,990.15
2017-08-07T11:01:23.764Z,990.10
2017-08-07T11:02:20.981Z,990.05
2017-08-07T11:03:18.271Z,990.05
2017-08-07T11:04:15.532Z,990.03
2017-08-07T11:05:12.793Z,990.04
2017-08-07T11:06:10.012Z,990.13
2017-08-07T11:07:07.281Z,990.04
2017-08-07T11:08:04.513Z,990.05
2017-08-07T11:09:01.788Z,990.08
2017-08-07T11:09:59.056Z,989.95
2017-08-07T11:10:56.308Z,990.03
2017-08-07T11:11:53.532Z,990.00
2017-08-07T11:12:50.812Z,989.97
2017-08-07T11:13:48.080Z,989.92
2017-08-07T11:14:45.340Z,989.95
2017-08-07T11:15:42.572Z,989.98
2017-08-07T11:16:39.937Z,989.99
2017-08-07T11:17:37.164Z,989.93
2017-08-07T11:18:34.418Z,989.97
2017-08-07T11:19:31.664Z,989.94
2017-08-07T11:20:28.913Z,989.91
2017-08-07T11:21:26.171Z,989.84
2017-08-07T11:22:23.420Z,989.88
2017-08-07T11:23:20.654Z,989.91
2017-08-07T11:24:17.933Z,989.85
2017-08-07T11:25:15.174Z,989.78
2017-08-07T11:26:12.431Z,989.76
2017-08-07T11:27:09.660Z,989.79
2017-08-07T11:28:06.912Z,989.75
2017-08-07T11:29:04.146Z,989.69
2017-08-07T11:30:01.440Z,989.71
2017-08-07T11:30:58.680Z,989.70
2017-08-07T11:31:55.929Z,989.67
2017-08-07T11:32:53.165Z,989.64
2017-08-07T11:33:50.477Z,989.65
2017-08-07T11:34:47.744Z,989.62
2017-08-07T11:35:45.002Z,989.72
2017-08-07T11:36:42.248Z,989.65
2017-08-07T11:37:39.508Z,989.74
2017-08-07T11:38:36.727Z,989.72
2017-08-07T11:39:34.258Z,989.74
2017-08-07T11:40:31.483Z,989.67
2017-08-07T11:41:28.725Z,989.66
2017-08-07T11:42:25.956Z,989.74
2017-08-07T11:43:23.234Z,989.69
2017-08-07T11:44:20.472Z,989.64
2017-08-07T11:45:17.752Z,989.68
2017-08-07T11:46:14.984Z,989.66
2017-08-07T11:47:12.235Z,989.64
2017-08-07T11:48:09.480Z,989.66
2017-08-07T11:49:06.729Z,989.57
2017-08-07T11:50:03.967Z,989.59
2017-08-07T11:51:01.225Z,989.60
2017-08-07T11:51:58.460Z,989.59
2017-08-07T11:52:55.717Z,989.60
2017-08-07T11:53:52.956Z,989.57
2017-08-07T11:54:50.233Z,989.60